Aviation Digital Data Service (ADDS)

Output produced by METARs form (0320 UTC 21 September 2017)
found at http://www.aviationweather.gov/adds/metars/
 
METAR text: RODN 210256Z AUTO 15007KT 10SM FEW025 FEW220 31/26 A2984 RMK AO2 SLP109 T03140255 58007 $
Conditions at: RODN (KADENA (USAFB-NA, JP) observed 0256 UTC 21 September 2017
Temperature: 31.4°C (89°F)
Dewpoint: 25.5°C (78°F) [RH = 71%]
Pressure (altimeter): 29.84 inches Hg (1010.6 mb)
[Sea-level pressure: 1010.9 mb]
Winds: from the SSE (150 degrees) at 8 MPH (7 knots; 3.6 m/s)
Visibility: 10 or more miles (16+ km)
Ceiling: at least 12,000 feet AGL
Clouds: few clouds at 2500 feet AGL
few clouds at 22000 feet AGL
Weather:
SOME DATA ABOVE MAY BE INACCURATE!!!
"$" is an indication the sensor requires maintenance

METAR text: ROTM 210159Z 15010KT 9999 SCT040 SCT100 31/25 A2987 RMK SLP100 STNPR29570 T03080251
Conditions at: ROTM (FUTENMA(US-MCAS), JP) observed 0159 UTC 21 September 2017
Temperature: 30.8°C (87°F)
Dewpoint: 25.1°C (77°F) [RH = 72%]
Pressure (altimeter): 29.87 inches Hg (1011.6 mb)
[Sea-level pressure: 1010.0 mb]
Winds: from the SSE (150 degrees) at 12 MPH (10 knots; 5.2 m/s)
Visibility: 6 or more miles (10+ km)
Ceiling: at least 12,000 feet AGL
Clouds: scattered clouds at 4000 feet AGL
scattered clouds at 10000 feet AGL
Weather: no significant weather observed at this time

METAR text: ROAH 210300Z 20010KT 9999 FEW025 BKN/// 30/25 Q1010 RMK 1CU025 A2982
Conditions at: ROAH (NAHA (CIV/JASDF), JP) observed 0300 UTC 21 September 2017
Temperature: 30.0°C (86°F)
Dewpoint: 25.0°C (77°F) [RH = 75%]
Pressure (altimeter): 29.82 inches Hg (1010.0 mb)
Winds: from the SSW (200 degrees) at 12 MPH (10 knots; 5.2 m/s)
Visibility: 6 or more miles (10+ km)
Ceiling: at least 12,000 feet AGL
Clouds: few clouds at 2500 feet AGL
Weather: no significant weather observed at this time